Time;durP1;ratioP1;P1;durP2;ratioP2;P2;SDS_P1;SDS_P2;PMS_P1;PMS_P2;Temp;Humidity;BMP_temperature;BMP_pressure;BME280_temperature;BME280_humidity;BME280_pressure;Samples;Min_cycle;Max_cycle;Signal;HPM_P1;HPM_P2
2022/08/26 00:02:19;;;;;;;6.50;4.70;;;;;;;;;;5094193;28;20703;-83
2022/08/26 00:04:45;;;;;;;7.32;4.47;;;;;;;;;;5111547;28;21680;-85
2022/08/26 00:07:10;;;;;;;5.75;4.00;;;;;;;;;;5112582;28;20020;-84
2022/08/26 00:09:36;;;;;;;7.22;4.30;;;;;;;;;;5095465;28;20031;-83
2022/08/26 00:12:01;;;;;;;6.90;4.10;;;;;;;;;;5111330;28;20063;-82
2022/08/26 00:14:27;;;;;;;6.50;4.28;;;;;;;;;;5108748;28;20023;-84
2022/08/26 00:16:52;;;;;;;6.57;4.20;;;;;;;;;;5093780;28;20019;-84
2022/08/26 00:19:19;;;;;;;5.45;4.10;;;;;;;;;;5110548;28;20020;-83
2022/08/26 00:21:46;;;;;;;5.43;3.70;;;;;;;;;;5116169;28;20032;-83
2022/08/26 00:24:12;;;;;;;5.18;4.13;;;;;;;;;;5116971;28;20030;-83
2022/08/26 00:26:38;;;;;;;7.43;3.95;;;;;;;;;;5115331;28;20035;-83
2022/08/26 00:29:03;;;;;;;7.63;4.40;;;;;;;;;;5090367;28;20020;-84
2022/08/26 00:31:29;;;;;;;5.60;4.07;;;;;;;;;;5093215;28;20034;-84
2022/08/26 00:33:55;;;;;;;5.40;4.30;;;;;;;;;;5117312;28;20023;-84
2022/08/26 00:36:20;;;;;;;6.25;4.20;;;;;;;;;;5115264;28;20084;-84
2022/08/26 00:38:46;;;;;;;5.90;3.92;;;;;;;;;;5112235;27;20095;-83
2022/08/26 00:41:12;;;;;;;9.27;4.10;;;;;;;;;;5106028;28;20102;-84
2022/08/26 00:43:37;;;;;;;6.20;4.05;;;;;;;;;;5118067;28;20048;-84
2022/08/26 00:46:13;;;;;;;5.78;4.28;;;;;;;;;;5121658;28;20499;-85
2022/08/26 00:48:42;;;;;;;6.85;4.70;;;;;;;;;;5101565;28;20508;-82
2022/08/26 00:51:14;;;;;;;5.30;3.75;;;;;;;;;;5122452;27;20102;-82
2022/08/26 00:53:46;;;;;;;6.32;3.85;;;;;;;;;;5097462;27;20019;-83
2022/08/26 00:56:30;;;;;;;7.50;4.40;;;;;;;;;;5100025;28;20373;-83
2022/08/26 00:59:00;;;;;;;6.50;4.20;;;;;;;;;;5117549;27;20031;-82
2022/08/26 01:01:27;;;;;;;7.57;4.15;;;;;;;;;;5128969;27;20024;-84
2022/08/26 01:03:54;;;;;;;7.05;4.60;;;;;;;;;;5115190;27;20102;-83
2022/08/26 01:06:20;;;;;;;7.97;4.38;;;;;;;;;;5109136;28;20028;-83
2022/08/26 01:08:46;;;;;;;7.65;4.28;;;;;;;;;;5107363;27;20035;-84
2022/08/26 01:11:12;;;;;;;9.07;4.22;;;;;;;;;;5098347;28;20046;-83
2022/08/26 01:13:38;;;;;;;6.80;4.43;;;;;;;;;;5121394;28;20030;-84
2022/08/26 01:16:07;;;;;;;7.07;3.97;;;;;;;;;;5136855;27;20109;-83
2022/08/26 01:18:33;;;;;;;6.20;4.22;;;;;;;;;;5138316;27;20064;-83
2022/08/26 01:20:58;;;;;;;6.53;4.38;;;;;;;;;;5132463;27;20038;-83
2022/08/26 01:23:28;;;;;;;5.68;3.92;;;;;;;;;;5120887;28;20392;-85
2022/08/26 01:25:58;;;;;;;5.00;4.00;;;;;;;;;;5127606;27;20035;-84
2022/08/26 01:28:27;;;;;;;5.90;4.25;;;;;;;;;;5101134;28;20031;-83
2022/08/26 01:30:54;;;;;;;5.60;4.25;;;;;;;;;;5107202;27;20113;-83
2022/08/26 01:33:24;;;;;;;8.77;4.53;;;;;;;;;;5130021;28;20023;-82
2022/08/26 01:35:51;;;;;;;5.53;4.00;;;;;;;;;;5139253;28;20014;-84
2022/08/26 01:38:17;;;;;;;6.43;4.32;;;;;;;;;;5148211;27;20039;-82
2022/08/26 01:40:44;;;;;;;5.50;4.13;;;;;;;;;;5113531;27;20126;-86
2022/08/26 01:43:17;;;;;;;5.68;4.15;;;;;;;;;;5135175;27;20015;-85
2022/08/26 01:45:43;;;;;;;6.38;4.25;;;;;;;;;;5100177;28;20059;-83
2022/08/26 01:48:14;;;;;;;6.78;4.10;;;;;;;;;;5085520;28;20039;-84
2022/08/26 01:50:41;;;;;;;10.55;4.65;;;;;;;;;;5101541;28;20034;-83
2022/08/26 01:53:11;;;;;;;5.40;4.15;;;;;;;;;;5116369;28;20039;-83
2022/08/26 01:55:40;;;;;;;6.05;4.18;;;;;;;;;;5098434;28;20039;-83
2022/08/26 01:58:16;;;;;;;10.38;4.10;;;;;;;;;;5122469;27;20072;-82
2022/08/26 02:00:42;;;;;;;7.10;4.30;;;;;;;;;;5120406;28;20267;-83
2022/08/26 02:03:16;;;;;;;5.97;4.03;;;;;;;;;;5143293;27;20055;-83
2022/08/26 02:05:52;;;;;;;6.55;4.22;;;;;;;;;;5093310;28;20038;-84
2022/08/26 02:08:19;;;;;;;7.07;4.43;;;;;;;;;;5102713;28;20024;-86
2022/08/26 02:10:44;;;;;;;6.82;4.55;;;;;;;;;;5084637;28;20141;-85
2022/08/26 02:13:10;;;;;;;6.60;4.38;;;;;;;;;;5101522;28;20475;-85
2022/08/26 02:15:39;;;;;;;6.97;4.43;;;;;;;;;;5102835;28;20019;-85
2022/08/26 02:18:05;;;;;;;14.07;4.85;;;;;;;;;;5100540;28;20016;-85
2022/08/26 02:20:30;;;;;;;6.55;4.57;;;;;;;;;;5102160;28;20078;-85
2022/08/26 02:22:56;;;;;;;8.15;4.60;;;;;;;;;;5103373;28;20038;-85
2022/08/26 02:25:24;;;;;;;5.78;4.45;;;;;;;;;;5115396;28;20066;-85
2022/08/26 02:27:49;;;;;;;5.55;4.30;;;;;;;;;;5101587;28;20027;-85
2022/08/26 02:30:19;;;;;;;6.82;4.65;;;;;;;;;;5103253;27;20390;-85
2022/08/26 02:32:45;;;;;;;4.78;3.45;;;;;;;;;;5118797;28;20034;-85
2022/08/26 02:35:13;;;;;;;7.07;4.30;;;;;;;;;;5103273;28;20114;-85
2022/08/26 02:37:39;;;;;;;10.30;4.50;;;;;;;;;;5087844;28;20024;-85
2022/08/26 02:40:06;;;;;;;7.10;4.25;;;;;;;;;;5082942;28;20030;-85
2022/08/26 02:42:32;;;;;;;8.32;4.65;;;;;;;;;;5099681;28;20065;-85
2022/08/26 02:44:57;;;;;;;6.75;4.43;;;;;;;;;;5116945;28;20027;-85
2022/08/26 02:47:24;;;;;;;5.28;4.38;;;;;;;;;;5118009;28;20031;-85
2022/08/26 02:49:50;;;;;;;5.70;4.30;;;;;;;;;;5098624;28;20484;-85
2022/08/26 02:52:16;;;;;;;7.07;4.53;;;;;;;;;;5097358;28;20024;-85
2022/08/26 02:54:42;;;;;;;7.38;4.28;;;;;;;;;;5082950;28;20024;-85
2022/08/26 02:57:09;;;;;;;8.02;4.47;;;;;;;;;;5114815;27;20024;-85
2022/08/26 02:59:35;;;;;;;8.38;4.53;;;;;;;;;;5123350;27;20019;-85
2022/08/26 03:02:00;;;;;;;6.07;4.10;;;;;;;;;;5125538;27;20123;-85
2022/08/26 03:04:26;;;;;;;7.53;4.28;;;;;;;;;;5130554;27;20034;-85
2022/08/26 03:06:52;;;;;;;11.77;4.07;;;;;;;;;;5098545;27;20036;-84
2022/08/26 03:09:18;;;;;;;6.38;4.50;;;;;;;;;;5104692;28;20031;-86
2022/08/26 03:11:45;;;;;;;7.30;4.25;;;;;;;;;;5126643;27;20030;-86
2022/08/26 03:14:10;;;;;;;6.93;4.25;;;;;;;;;;5105237;27;20365;-83
2022/08/26 03:16:36;;;;;;;6.22;4.03;;;;;;;;;;5121040;27;20022;-84
2022/08/26 03:19:04;;;;;;;9.70;4.38;;;;;;;;;;5108825;27;20027;-83
2022/08/26 03:21:30;;;;;;;5.43;4.07;;;;;;;;;;5117114;28;20076;-86
2022/08/26 03:23:55;;;;;;;5.43;4.30;;;;;;;;;;5101238;28;20023;-84
2022/08/26 03:26:21;;;;;;;6.30;4.30;;;;;;;;;;5123886;27;20022;-84
2022/08/26 03:31:31;;;;;;;10.73;4.60;;;;;;;;;;5129685;27;20033;-84
2022/08/26 03:33:56;;;;;;;6.43;4.45;;;;;;;;;;5102719;28;20118;-85
2022/08/26 03:36:22;;;;;;;7.07;4.20;;;;;;;;;;5118922;28;20452;-84
2022/08/26 03:38:47;;;;;;;6.53;4.05;;;;;;;;;;5095438;28;20180;-83
2022/08/26 03:41:13;;;;;;;5.60;4.10;;;;;;;;;;5100588;28;20043;-84
2022/08/26 03:43:39;;;;;;;8.95;4.78;;;;;;;;;;5098188;28;20422;-83
2022/08/26 03:46:10;;;;;;;6.38;4.38;;;;;;;;;;5100277;28;20027;-83
2022/08/26 03:48:36;;;;;;;7.63;4.60;;;;;;;;;;5118059;28;20027;-84
2022/08/26 03:51:03;;;;;;;7.45;4.85;;;;;;;;;;5099039;28;20581;-83
2022/08/26 03:53:29;;;;;;;7.68;4.70;;;;;;;;;;5098923;28;20034;-86
2022/08/26 03:55:54;;;;;;;5.75;4.32;;;;;;;;;;5121220;27;20016;-83
2022/08/26 03:58:20;;;;;;;8.45;4.45;;;;;;;;;;5116756;28;20268;-83
2022/08/26 04:00:45;;;;;;;8.85;5.03;;;;;;;;;;5127062;27;20046;-84
2022/08/26 04:03:13;;;;;;;10.00;4.55;;;;;;;;;;5100555;28;20072;-85
2022/08/26 04:05:38;;;;;;;9.07;4.30;;;;;;;;;;5099157;28;20461;-84
2022/08/26 04:08:04;;;;;;;7.07;4.70;;;;;;;;;;5122523;27;20120;-84
2022/08/26 04:10:31;;;;;;;6.93;4.68;;;;;;;;;;5100904;28;20495;-84
2022/08/26 04:12:57;;;;;;;9.07;4.60;;;;;;;;;;5100910;28;20049;-84
2022/08/26 04:15:22;;;;;;;7.30;4.70;;;;;;;;;;5092369;28;20020;-85
2022/08/26 04:17:48;;;;;;;5.07;3.95;;;;;;;;;;5121247;28;20493;-85
2022/08/26 04:20:16;;;;;;;10.30;4.97;;;;;;;;;;5105931;28;20122;-84
2022/08/26 04:22:43;;;;;;;6.70;4.30;;;;;;;;;;5083927;28;20077;-84
2022/08/26 04:25:09;;;;;;;10.57;4.88;;;;;;;;;;5111787;28;20102;-83
2022/08/26 04:27:35;;;;;;;6.00;4.47;;;;;;;;;;5098786;28;20179;-84
2022/08/26 04:30:01;;;;;;;10.13;4.72;;;;;;;;;;5118647;28;20044;-83
2022/08/26 04:32:27;;;;;;;7.43;4.68;;;;;;;;;;5107878;28;20026;-85
2022/08/26 04:34:52;;;;;;;13.90;4.90;;;;;;;;;;5118424;28;20431;-84
2022/08/26 04:37:18;;;;;;;8.10;4.90;;;;;;;;;;5117895;28;20039;-84
2022/08/26 04:39:43;;;;;;;6.55;4.53;;;;;;;;;;5100610;28;20025;-85
2022/08/26 04:42:09;;;;;;;9.05;4.65;;;;;;;;;;5100517;28;20377;-85
2022/08/26 04:44:36;;;;;;;7.40;4.47;;;;;;;;;;5100007;28;20027;-85
2022/08/26 04:47:02;;;;;;;6.95;4.78;;;;;;;;;;5117537;28;20024;-84
2022/08/26 04:49:28;;;;;;;10.05;4.78;;;;;;;;;;5108559;28;20028;-84
2022/08/26 04:51:53;;;;;;;6.70;4.85;;;;;;;;;;5091459;28;20034;-84
2022/08/26 04:54:19;;;;;;;10.68;4.82;;;;;;;;;;5097597;28;20023;-84
2022/08/26 04:56:47;;;;;;;10.90;5.10;;;;;;;;;;5109044;28;20024;-85
2022/08/26 04:59:16;;;;;;;11.10;5.15;;;;;;;;;;5102155;28;20011;-84
2022/08/26 05:01:46;;;;;;;7.75;4.82;;;;;;;;;;5109656;28;20053;-84
2022/08/26 05:04:11;;;;;;;7.20;5.00;;;;;;;;;;5105658;28;20011;-84
2022/08/26 05:06:37;;;;;;;8.18;5.28;;;;;;;;;;5139639;27;20217;-84
2022/08/26 05:09:03;;;;;;;10.80;5.50;;;;;;;;;;5126064;27;20030;-85
2022/08/26 05:11:28;;;;;;;6.93;4.82;;;;;;;;;;5123474;28;20027;-85
2022/08/26 05:13:53;;;;;;;9.02;5.40;;;;;;;;;;5123412;28;20035;-85
2022/08/26 05:16:19;;;;;;;11.38;5.22;;;;;;;;;;5107971;28;20038;-84
2022/08/26 05:18:44;;;;;;;9.75;5.65;;;;;;;;;;5107863;28;20019;-84
2022/08/26 05:21:22;;;;;;;10.10;5.60;;;;;;;;;;5108568;28;20023;-84
2022/08/26 05:23:53;;;;;;;8.52;6.30;;;;;;;;;;5126989;28;20091;-84
2022/08/26 05:26:21;;;;;;;13.18;6.20;;;;;;;;;;5106811;28;20054;-87
2022/08/26 05:28:46;;;;;;;9.65;5.97;;;;;;;;;;5099859;28;20027;-84
2022/08/26 05:31:17;;;;;;;10.50;6.03;;;;;;;;;;5135167;27;20027;-85
2022/08/26 05:33:43;;;;;;;10.95;6.15;;;;;;;;;;5129877;27;20075;-84
2022/08/26 05:36:11;;;;;;;12.15;6.18;;;;;;;;;;5126182;27;20114;-84
2022/08/26 05:38:36;;;;;;;11.05;6.55;;;;;;;;;;5121092;28;20529;-84
2022/08/26 05:41:02;;;;;;;18.27;6.30;;;;;;;;;;5116827;28;20108;-83
2022/08/26 05:43:27;;;;;;;15.73;6.35;;;;;;;;;;5120524;27;20091;-84
2022/08/26 05:45:53;;;;;;;9.15;6.18;;;;;;;;;;5103546;28;20026;-83
2022/08/26 05:48:19;;;;;;;8.10;5.47;;;;;;;;;;5101528;28;20024;-84
2022/08/26 05:50:49;;;;;;;8.65;5.72;;;;;;;;;;5092251;28;20028;-84
2022/08/26 05:53:19;;;;;;;7.43;5.65;;;;;;;;;;5102910;28;20034;-83
2022/08/26 05:55:48;;;;;;;7.85;6.25;;;;;;;;;;5098824;27;20028;-84
2022/08/26 05:58:13;;;;;;;7.90;6.30;;;;;;;;;;5110620;28;20053;-83
2022/08/26 06:00:39;;;;;;;9.70;5.85;;;;;;;;;;5105456;28;20483;-84
2022/08/26 06:03:06;;;;;;;10.75;5.45;;;;;;;;;;5088921;28;20027;-85
2022/08/26 06:05:31;;;;;;;7.93;5.22;;;;;;;;;;5116380;28;20024;-85
2022/08/26 06:08:14;;;;;;;8.57;5.40;;;;;;;;;;5130043;27;20053;-84
2022/08/26 06:10:54;;;;;;;9.15;5.18;;;;;;;;;;5106698;28;20099;-84
2022/08/26 06:13:25;;;;;;;10.23;4.95;;;;;;;;;;5118723;28;20023;-85
2022/08/26 06:15:51;;;;;;;9.75;5.13;;;;;;;;;;5100745;28;20020;-84
2022/08/26 06:18:21;;;;;;;7.18;5.40;;;;;;;;;;5109786;28;20023;-84
2022/08/26 06:20:47;;;;;;;11.00;5.28;;;;;;;;;;5119198;28;20067;-84
2022/08/26 06:25:59;;;;;;;9.73;4.72;;;;;;;;;;5128894;27;20063;-85
2022/08/26 06:28:25;;;;;;;8.35;5.43;;;;;;;;;;5122445;27;20027;-85
2022/08/26 06:30:52;;;;;;;9.30;5.07;;;;;;;;;;5122476;27;20080;-85
2022/08/26 06:33:18;;;;;;;8.60;4.90;;;;;;;;;;5119297;28;20031;-85
2022/08/26 06:35:47;;;;;;;6.90;5.03;;;;;;;;;;5104704;27;20031;-85
2022/08/26 06:38:13;;;;;;;6.10;4.78;;;;;;;;;;5102812;28;20090;-85
2022/08/26 06:40:44;;;;;;;5.60;4.63;;;;;;;;;;5107769;28;20055;-85
2022/08/26 06:43:11;;;;;;;7.25;5.70;;;;;;;;;;5103900;28;20039;-85
2022/08/26 06:45:37;;;;;;;11.60;5.03;;;;;;;;;;5113652;28;20051;-85
2022/08/26 06:48:05;;;;;;;11.20;5.53;;;;;;;;;;5099565;28;20023;-84
2022/08/26 06:50:31;;;;;;;11.05;5.20;;;;;;;;;;5097953;28;20046;-83
2022/08/26 06:52:56;;;;;;;11.13;5.45;;;;;;;;;;5133162;27;20028;-83
2022/08/26 06:55:21;;;;;;;9.90;4.90;;;;;;;;;;5116014;27;20030;-84
2022/08/26 06:57:47;;;;;;;9.95;5.65;;;;;;;;;;5111650;28;20028;-85
2022/08/26 07:00:14;;;;;;;8.25;5.60;;;;;;;;;;5096391;28;20030;-85
2022/08/26 07:02:39;;;;;;;10.25;5.18;;;;;;;;;;5108367;28;20045;-83
2022/08/26 07:05:05;;;;;;;7.68;4.78;;;;;;;;;;5105839;28;20036;-84
2022/08/26 07:07:30;;;;;;;9.95;4.70;;;;;;;;;;5095221;28;20500;-85
2022/08/26 07:09:56;;;;;;;11.93;5.10;;;;;;;;;;5100692;28;20266;-84
2022/08/26 07:12:21;;;;;;;10.95;4.63;;;;;;;;;;5103509;28;20397;-84
2022/08/26 07:14:47;;;;;;;7.50;5.05;;;;;;;;;;5127755;28;20031;-84
2022/08/26 07:17:13;;;;;;;8.98;5.22;;;;;;;;;;5137547;28;20063;-83
2022/08/26 07:19:38;;;;;;;6.22;4.28;;;;;;;;;;5121438;28;20035;-83
2022/08/26 07:22:05;;;;;;;13.50;5.38;;;;;;;;;;5120386;28;20035;-83
2022/08/26 07:24:33;;;;;;;7.97;4.95;;;;;;;;;;5135005;28;20020;-84
2022/08/26 07:27:05;;;;;;;8.43;4.93;;;;;;;;;;5111391;28;20051;-84
2022/08/26 07:29:30;;;;;;;8.75;5.97;;;;;;;;;;5113651;28;20110;-84
2022/08/26 07:31:57;;;;;;;7.85;4.15;;;;;;;;;;5130425;27;20043;-85
2022/08/26 07:34:22;;;;;;;8.23;5.15;;;;;;;;;;5122486;28;20502;-83
2022/08/26 07:36:50;;;;;;;6.15;4.25;;;;;;;;;;5084605;28;20034;-84
2022/08/26 07:39:16;;;;;;;9.38;4.80;;;;;;;;;;5086184;28;20015;-84
2022/08/26 07:41:41;;;;;;;9.00;5.35;;;;;;;;;;5112500;28;20016;-85
2022/08/26 07:44:07;;;;;;;7.80;5.32;;;;;;;;;;5104472;28;20044;-84
2022/08/26 07:46:33;;;;;;;5.63;4.43;;;;;;;;;;5114878;28;20168;-85
2022/08/26 07:48:59;;;;;;;6.80;4.28;;;;;;;;;;5100622;28;20035;-84
2022/08/26 07:51:26;;;;;;;7.22;4.57;;;;;;;;;;5107297;28;20020;-84
2022/08/26 07:53:52;;;;;;;7.75;5.13;;;;;;;;;;5111996;28;20024;-83
2022/08/26 07:56:17;;;;;;;6.28;4.43;;;;;;;;;;5107630;28;20084;-83
2022/08/26 07:58:43;;;;;;;5.28;4.30;;;;;;;;;;5117965;27;20035;-84
2022/08/26 08:01:08;;;;;;;12.57;4.55;;;;;;;;;;5099298;28;20052;-84
2022/08/26 08:03:34;;;;;;;6.30;4.30;;;;;;;;;;5110682;28;20037;-85
2022/08/26 08:05:59;;;;;;;8.85;4.53;;;;;;;;;;5103366;22;20051;-85
2022/08/26 08:08:26;;;;;;;6.40;4.50;;;;;;;;;;5122649;27;20477;-85
2022/08/26 08:10:51;;;;;;;11.23;4.13;;;;;;;;;;5116652;28;20083;-82
2022/08/26 08:13:17;;;;;;;8.00;4.00;;;;;;;;;;5119545;28;20032;-83
2022/08/26 08:15:42;;;;;;;7.97;4.15;;;;;;;;;;5082949;28;20070;-83
2022/08/26 08:18:08;;;;;;;11.90;3.75;;;;;;;;;;5112212;28;20031;-83
2022/08/26 08:20:34;;;;;;;8.30;4.40;;;;;;;;;;5119303;28;20054;-84
2022/08/26 08:23:02;;;;;;;5.78;3.92;;;;;;;;;;5116898;28;20069;-84
2022/08/26 08:25:29;;;;;;;5.55;4.20;;;;;;;;;;5117677;28;20020;-84
2022/08/26 08:27:54;;;;;;;5.18;3.70;;;;;;;;;;5128083;28;20043;-84
2022/08/26 08:30:21;;;;;;;9.00;3.90;;;;;;;;;;5094984;28;20023;-83
2022/08/26 08:32:46;;;;;;;6.43;3.92;;;;;;;;;;5111164;28;20034;-84
2022/08/26 08:35:15;;;;;;;8.80;4.20;;;;;;;;;;5100753;28;20023;-84
2022/08/26 08:37:42;;;;;;;7.68;3.80;;;;;;;;;;5111000;28;20016;-84
2022/08/26 08:40:08;;;;;;;10.25;4.22;;;;;;;;;;5109708;28;20036;-83
2022/08/26 08:43:02;;;;;;;6.72;3.97;;;;;;;;;;5118253;28;20110;-83
2022/08/26 08:45:33;;;;;;;6.60;4.00;;;;;;;;;;5123414;28;20020;-85
2022/08/26 08:48:03;;;;;;;9.55;3.60;;;;;;;;;;5104812;28;20024;-84
2022/08/26 08:50:33;;;;;;;5.75;3.53;;;;;;;;;;5124052;28;20024;-83
2022/08/26 08:53:18;;;;;;;5.38;4.07;;;;;;;;;;5122155;28;20023;-84
2022/08/26 08:55:50;;;;;;;6.25;3.42;;;;;;;;;;5117265;27;20053;-85
2022/08/26 08:58:19;;;;;;;7.82;3.70;;;;;;;;;;5109242;28;20024;-84
2022/08/26 09:00:57;;;;;;;5.20;3.38;;;;;;;;;;5113384;28;20556;-84
2022/08/26 09:03:50;;;;;;;6.68;3.60;;;;;;;;;;5116195;27;20058;-84
2022/08/26 09:06:17;;;;;;;5.78;3.65;;;;;;;;;;5111604;28;20039;-84
2022/08/26 09:08:47;;;;;;;5.50;2.92;;;;;;;;;;5103511;28;20030;-84
2022/08/26 09:11:15;;;;;;;6.30;3.05;;;;;;;;;;5103741;28;20503;-84
2022/08/26 09:13:47;;;;;;;6.40;3.33;;;;;;;;;;5101112;28;20454;-84
2022/08/26 09:16:22;;;;;;;5.55;3.25;;;;;;;;;;5109391;28;20055;-87
2022/08/26 09:19:04;;;;;;;10.95;3.38;;;;;;;;;;5102763;28;20085;-85
2022/08/26 09:21:31;;;;;;;9.73;3.50;;;;;;;;;;5103965;28;20040;-85
2022/08/26 09:23:57;;;;;;;10.23;3.55;;;;;;;;;;5104704;28;20035;-86
2022/08/26 09:26:38;;;;;;;5.10;3.30;;;;;;;;;;5122333;28;20065;-85
2022/08/26 09:29:18;;;;;;;8.77;4.07;;;;;;;;;;5100307;28;20055;-86
2022/08/26 09:31:44;;;;;;;7.15;3.88;;;;;;;;;;5097868;28;20026;-85
2022/08/26 09:34:15;;;;;;;7.22;3.38;;;;;;;;;;5122041;28;20052;-86
2022/08/26 09:36:40;;;;;;;4.60;3.30;;;;;;;;;;5122595;28;20056;-85
2022/08/26 09:39:26;;;;;;;5.57;3.85;;;;;;;;;;5104447;28;20067;-85
2022/08/26 09:42:19;;;;;;;7.05;3.33;;;;;;;;;;5122884;28;20035;-85
2022/08/26 09:44:53;;;;;;;5.13;3.20;;;;;;;;;;5103908;28;20024;-86
2022/08/26 09:47:26;;;;;;;7.10;3.67;;;;;;;;;;5122692;28;20027;-86
2022/08/26 09:50:03;;;;;;;5.35;3.80;;;;;;;;;;5123113;28;20030;-86
2022/08/26 09:52:28;;;;;;;6.93;3.67;;;;;;;;;;5104646;28;20032;-85
2022/08/26 09:55:08;;;;;;;6.35;3.70;;;;;;;;;;5123655;28;20023;-84
2022/08/26 09:57:44;;;;;;;8.13;3.50;;;;;;;;;;5122715;28;20016;-84
2022/08/26 10:00:31;;;;;;;9.20;4.10;;;;;;;;;;5123169;27;20098;-85
2022/08/26 10:02:59;;;;;;;6.60;3.92;;;;;;;;;;5106310;27;20020;-85
2022/08/26 10:06:01;;;;;;;9.18;4.47;;;;;;;;;;5104136;28;20023;-86
2022/08/26 10:08:42;;;;;;;10.02;4.65;;;;;;;;;;5106339;27;20057;-87
2022/08/26 10:11:27;;;;;;;;;;;;;;;;;;5095459;28;20144;-86
2022/08/26 10:14:08;;;;;;;13.30;4.32;;;;;;;;;;5106092;28;19923;-85
2022/08/26 10:16:51;;;;;;;16.88;4.38;;;;;;;;;;5103173;28;20027;-85
2022/08/26 10:19:24;;;;;;;10.85;4.03;;;;;;;;;;5100634;28;20011;-84
2022/08/26 10:22:10;;;;;;;9.38;4.05;;;;;;;;;;5097953;28;20031;-84
2022/08/26 10:24:41;;;;;;;9.02;4.38;;;;;;;;;;5119128;28;20003;-86
2022/08/26 10:27:23;;;;;;;8.75;4.03;;;;;;;;;;5128751;28;20023;-84
2022/08/26 10:29:53;;;;;;;10.23;4.75;;;;;;;;;;5126084;28;20032;-84
2022/08/26 10:32:40;;;;;;;10.00;4.65;;;;;;;;;;5110694;28;20024;-84
2022/08/26 10:35:08;;;;;;;12.20;3.70;;;;;;;;;;5105084;28;20036;-84
2022/08/26 10:37:56;;;;;;;9.60;4.30;;;;;;;;;;5106537;28;20015;-85
2022/08/26 10:40:22;;;;;;;8.88;3.75;;;;;;;;;;5134048;28;20051;-87
2022/08/26 10:42:50;;;;;;;13.73;3.72;;;;;;;;;;5105598;28;20031;-85
2022/08/26 10:45:18;;;;;;;14.50;4.22;;;;;;;;;;5116865;27;20008;-87
2022/08/26 10:48:03;;;;;;;11.27;4.35;;;;;;;;;;5124303;28;20102;-86
2022/08/26 10:50:35;;;;;;;10.57;4.57;;;;;;;;;;5112682;28;20111;-87
2022/08/26 10:53:21;;;;;;;11.45;4.82;;;;;;;;;;5085090;28;20020;-85
2022/08/26 10:55:46;;;;;;;9.95;4.10;;;;;;;;;;5088764;28;20409;-85
2022/08/26 10:58:41;;;;;;;11.57;4.32;;;;;;;;;;5102718;27;20468;-85
2022/08/26 11:04:15;;;;;;;9.98;3.72;;;;;;;;;;5101795;28;20123;-87
2022/08/26 11:06:44;;;;;;;6.97;3.95;;;;;;;;;;5081137;28;20027;-87
2022/08/26 11:09:10;;;;;;;6.80;3.63;;;;;;;;;;5098715;28;20020;-85
2022/08/26 11:11:39;;;;;;;5.72;3.25;;;;;;;;;;5097711;28;20421;-86
2022/08/26 11:14:29;;;;;;;9.30;3.70;;;;;;;;;;5120053;28;20032;-85
2022/08/26 11:16:58;;;;;;;4.95;3.33;;;;;;;;;;5118885;28;20042;-85
2022/08/26 11:19:37;;;;;;;7.35;3.33;;;;;;;;;;5101647;28;20030;-85
2022/08/26 11:22:24;;;;;;;12.65;4.47;;;;;;;;;;5100717;28;20030;-85
2022/08/26 11:24:55;;;;;;;7.10;4.47;;;;;;;;;;5124865;28;20035;-84
2022/08/26 11:27:24;;;;;;;15.10;4.28;;;;;;;;;;5139146;27;20030;-84
2022/08/26 11:30:11;;;;;;;10.20;4.50;;;;;;;;;;5116761;28;20079;-85
2022/08/26 11:32:40;;;;;;;11.55;4.18;;;;;;;;;;5100267;28;20107;-85
2022/08/26 11:35:05;;;;;;;11.38;4.30;;;;;;;;;;5122526;28;20035;-85
2022/08/26 11:37:36;;;;;;;9.75;4.00;;;;;;;;;;5111901;28;20082;-86
2022/08/26 11:40:07;;;;;;;13.60;4.10;;;;;;;;;;5105368;28;20087;-86
2022/08/26 11:42:39;;;;;;;6.85;3.70;;;;;;;;;;5113511;28;20493;-86
2022/08/26 11:45:24;;;;;;;9.60;3.58;;;;;;;;;;5099447;28;20034;-87
2022/08/26 11:47:49;;;;;;;6.60;3.60;;;;;;;;;;5099045;28;20501;-85
2022/08/26 11:50:22;;;;;;;8.07;3.58;;;;;;;;;;5104200;28;20031;-86
2022/08/26 11:53:00;;;;;;;5.57;3.90;;;;;;;;;;5119165;27;20114;-86
2022/08/26 11:55:27;;;;;;;5.47;3.65;;;;;;;;;;5116629;28;20050;-85
2022/08/26 11:57:56;;;;;;;6.85;4.10;;;;;;;;;;5112371;28;20492;-84
2022/08/26 12:00:45;;;;;;;4.70;3.50;;;;;;;;;;5103586;28;20032;-84
2022/08/26 12:03:16;;;;;;;8.25;4.15;;;;;;;;;;5093500;28;20093;-85
2022/08/26 12:05:43;;;;;;;9.48;3.60;;;;;;;;;;5109481;28;20033;-84
2022/08/26 12:08:14;;;;;;;7.18;3.40;;;;;;;;;;5115704;28;20027;-84
2022/08/26 12:10:40;;;;;;;7.38;3.55;;;;;;;;;;5117767;28;20016;-85
2022/08/26 12:13:07;;;;;;;10.63;3.95;;;;;;;;;;5116695;28;20040;-85
2022/08/26 12:15:34;;;;;;;11.45;4.85;;;;;;;;;;5113415;28;20024;-84
2022/08/26 12:18:17;;;;;;;12.65;4.63;;;;;;;;;;5114198;28;20392;-84
2022/08/26 12:20:47;;;;;;;10.05;3.75;;;;;;;;;;5100866;28;20034;-84
2022/08/26 12:23:26;;;;;;;10.90;4.50;;;;;;;;;;5091843;28;20051;-86
2022/08/26 12:26:01;;;;;;;10.23;4.88;;;;;;;;;;5118195;28;20046;-86
2022/08/26 12:28:28;;;;;;;13.07;4.32;;;;;;;;;;5096564;28;20027;-84
2022/08/26 12:30:59;;;;;;;9.50;4.65;;;;;;;;;;5108676;28;20034;-84
2022/08/26 12:33:25;;;;;;;12.88;4.38;;;;;;;;;;5132597;28;20026;-86
2022/08/26 12:35:51;;;;;;;9.82;4.65;;;;;;;;;;5091372;28;20118;-86
2022/08/26 12:38:17;;;;;;;13.80;5.57;;;;;;;;;;5098854;28;20031;-86
2022/08/26 12:40:44;;;;;;;12.13;4.93;;;;;;;;;;5099703;28;20397;-83
2022/08/26 12:43:14;;;;;;;10.05;4.68;;;;;;;;;;5111994;28;20526;-83
2022/08/26 12:45:55;;;;;;;9.90;4.10;;;;;;;;;;5105705;28;20499;-84
2022/08/26 12:48:30;;;;;;;13.23;4.97;;;;;;;;;;5116255;28;20027;-84
2022/08/26 12:50:56;;;;;;;11.85;4.47;;;;;;;;;;5101880;28;20280;-84
2022/08/26 12:53:24;;;;;;;10.23;4.85;;;;;;;;;;5123294;28;20019;-83
2022/08/26 12:55:53;;;;;;;7.90;4.40;;;;;;;;;;5135869;28;20023;-83
2022/08/26 12:58:24;;;;;;;14.32;4.90;;;;;;;;;;5128993;28;20023;-83
2022/08/26 13:01:15;;;;;;;6.57;4.15;;;;;;;;;;5128692;28;20036;-84
2022/08/26 13:03:43;;;;;;;20.35;4.95;;;;;;;;;;5132686;28;20029;-84
2022/08/26 13:06:28;;;;;;;10.93;4.57;;;;;;;;;;5107962;28;20042;-83
2022/08/26 13:09:22;;;;;;;10.82;4.35;;;;;;;;;;5120597;28;20140;-85
2022/08/26 13:11:48;;;;;;;7.45;3.67;;;;;;;;;;5085206;28;20035;-84
2022/08/26 13:14:18;;;;;;;8.57;4.03;;;;;;;;;;5100482;28;20373;-84
2022/08/26 13:16:44;;;;;;;12.05;4.22;;;;;;;;;;5094745;28;20028;-87
2022/08/26 13:19:13;;;;;;;9.40;3.72;;;;;;;;;;5087988;28;20023;-84
2022/08/26 13:21:47;;;;;;;11.52;3.58;;;;;;;;;;5095200;28;20079;-85
2022/08/26 13:24:23;;;;;;;9.23;4.20;;;;;;;;;;5098766;28;20068;-84
2022/08/26 13:26:49;;;;;;;11.98;3.65;;;;;;;;;;5095318;28;20754;-85
2022/08/26 13:29:15;;;;;;;12.43;4.78;;;;;;;;;;5101524;28;20078;-86
2022/08/26 13:31:43;;;;;;;12.95;4.35;;;;;;;;;;5101312;28;20027;-85
2022/08/26 13:34:10;;;;;;;11.50;4.13;;;;;;;;;;5103625;28;20148;-85
2022/08/26 13:36:36;;;;;;;12.68;4.43;;;;;;;;;;5104474;28;20012;-85
2022/08/26 13:39:03;;;;;;;14.75;4.85;;;;;;;;;;5099806;28;20043;-85
2022/08/26 13:41:30;;;;;;;15.25;4.47;;;;;;;;;;5082777;28;20576;-83
2022/08/26 13:43:57;;;;;;;12.32;4.55;;;;;;;;;;5100907;28;20095;-85
2022/08/26 13:46:24;;;;;;;16.45;4.25;;;;;;;;;;5082826;28;20043;-85
2022/08/26 13:48:50;;;;;;;12.02;4.05;;;;;;;;;;5096608;28;20036;-84
2022/08/26 13:51:17;;;;;;;11.65;4.35;;;;;;;;;;5079573;28;20080;-84
2022/08/26 13:53:43;;;;;;;12.85;4.35;;;;;;;;;;5096051;28;20035;-84
2022/08/26 13:56:08;;;;;;;8.73;4.63;;;;;;;;;;5116607;28;20053;-84
2022/08/26 13:58:34;;;;;;;9.75;4.03;;;;;;;;;;5095347;28;20091;-85
2022/08/26 14:00:59;;;;;;;11.93;4.43;;;;;;;;;;5076672;28;20012;-85
2022/08/26 14:03:24;;;;;;;12.32;4.53;;;;;;;;;;5082072;28;20059;-85
2022/08/26 14:05:52;;;;;;;14.27;4.65;;;;;;;;;;5114876;22;20071;-85
2022/08/26 14:08:17;;;;;;;9.02;4.45;;;;;;;;;;5054413;28;20028;-85
2022/08/26 14:10:43;;;;;;;16.65;4.50;;;;;;;;;;5089511;28;20080;-86
2022/08/26 14:13:08;;;;;;;16.38;4.60;;;;;;;;;;5067432;28;20031;-85
2022/08/26 14:15:35;;;;;;;14.77;4.53;;;;;;;;;;5089850;28;20020;-87
2022/08/26 14:18:06;;;;;;;13.23;5.07;;;;;;;;;;5098238;28;20028;-86
2022/08/26 14:20:32;;;;;;;11.77;4.10;;;;;;;;;;5097338;28;20034;-86
2022/08/26 14:22:58;;;;;;;11.68;4.85;;;;;;;;;;5093160;28;20028;-85
2022/08/26 14:25:24;;;;;;;10.75;4.70;;;;;;;;;;5089308;28;20024;-86
2022/08/26 14:27:51;;;;;;;10.35;4.47;;;;;;;;;;5098622;28;20024;-86
2022/08/26 14:30:18;;;;;;;13.02;4.18;;;;;;;;;;5107606;28;20016;-85
2022/08/26 14:32:51;;;;;;;10.65;4.15;;;;;;;;;;5109827;28;20084;-84
2022/08/26 14:35:23;;;;;;;12.15;4.40;;;;;;;;;;5107213;28;20032;-84
2022/08/26 14:37:50;;;;;;;10.10;4.07;;;;;;;;;;5127325;28;20076;-86
2022/08/26 14:40:17;;;;;;;10.18;4.30;;;;;;;;;;5135231;28;20029;-86
2022/08/26 14:42:47;;;;;;;8.95;4.45;;;;;;;;;;5102847;28;20042;-85
2022/08/26 14:45:16;;;;;;;14.98;4.57;;;;;;;;;;5091448;28;20141;-85
2022/08/26 14:47:43;;;;;;;10.88;4.05;;;;;;;;;;5102343;28;20087;-85
2022/08/26 14:50:09;;;;;;;8.02;4.22;;;;;;;;;;5110084;28;20031;-87
2022/08/26 14:54:10;;;;;;;11.15;4.00;;;;;;;;;;5099223;28;20125;-86
2022/08/26 14:55:20;;;;;;;13.27;4.20;;;;;;;;;;5105704;28;20032;-86
2022/08/26 14:57:45;;;;;;;13.35;4.60;;;;;;;;;;5106640;28;20031;-86
2022/08/26 15:00:11;;;;;;;10.48;4.35;;;;;;;;;;5102729;28;20024;-85